Time;durP1;ratioP1;P1;durP2;ratioP2;P2;SDS_P1;SDS_P2;PMS_P1;PMS_P2;Temp;Humidity;BMP_temperature;BMP_pressure;BME280_temperature;BME280_humidity;BME280_pressure;Samples;Min_cycle;Max_cycle;Signal;HPM_P1;HPM_P2
2022/08/30 00:03:05;;;;;;;23.90;21.35;;;;;;;24.55;53.75;94627.84;5036333;28;97153;-61
2022/08/30 00:05:31;;;;;;;29.27;25.55;;;;;;;24.56;53.77;94629.41;5035857;27;99470;-62
2022/08/30 00:07:56;;;;;;;31.60;28.30;;;;;;;24.57;53.82;94625.44;5036218;28;96987;-61
2022/08/30 00:10:22;;;;;;;29.65;26.45;;;;;;;24.58;53.92;94627.00;5036109;28;97020;-60
2022/08/30 00:12:47;;;;;;;26.38;23.58;;;;;;;24.56;53.58;94629.41;5035874;27;99837;-61
2022/08/30 00:15:13;;;;;;;24.73;22.13;;;;;;;24.60;54.13;94629.34;5035516;28;99384;-61
2022/08/30 00:17:39;;;;;;;25.23;22.50;;;;;;;24.66;53.43;94622.13;5036101;28;96754;-60
2022/08/30 00:20:05;;;;;;;23.50;20.45;;;;;;;24.63;53.95;94619.44;5036465;28;97726;-60
2022/08/30 00:22:31;;;;;;;21.52;19.10;;;;;;;24.63;54.53;94627.72;5035556;28;99910;-61
2022/08/30 00:24:59;;;;;;;20.35;18.15;;;;;;;24.67;53.64;94625.66;5035291;28;99458;-60
2022/08/30 00:27:26;;;;;;;20.50;16.70;;;;;;;24.69;53.89;94620.50;5035946;27;97871;-60
2022/08/30 00:29:51;;;;;;;18.70;16.70;;;;;;;24.72;53.13;94616.91;5035607;28;96951;-61
2022/08/30 00:32:17;;;;;;;16.90;15.13;;;;;;;24.74;53.47;94616.47;5033965;28;107111;-62
2022/08/30 00:35:02;;;;;;;17.70;15.02;;;;;;;24.74;53.54;94617.25;5035224;27;99227;-62
2022/08/30 00:37:27;;;;;;;17.23;15.30;;;;;;;24.65;53.57;94619.78;5033698;27;97219;-62
2022/08/30 00:39:52;;;;;;;17.38;14.77;;;;;;;24.65;53.68;94619.78;5033893;28;97277;-61
2022/08/30 00:42:19;;;;;;;17.95;13.98;;;;;;;24.67;53.64;94622.91;5032456;27;102019;-61
2022/08/30 00:44:44;;;;;;;15.93;13.95;;;;;;;24.67;53.42;94631.19;5032221;28;98227;-61
2022/08/30 00:47:10;;;;;;;15.02;13.43;;;;;;;24.67;54.71;94622.91;5032642;28;96794;-61
2022/08/30 00:49:35;;;;;;;14.10;12.13;;;;;;;24.73;53.63;94626.75;5035119;27;96985;-61
2022/08/30 00:52:01;;;;;;;15.27;13.07;;;;;;;24.63;53.68;94622.19;5016454;28;99477;-61
2022/08/30 00:54:27;;;;;;;19.67;16.15;;;;;;;24.70;53.57;94631.13;5033824;28;99248;-61
2022/08/30 00:56:52;;;;;;;19.58;16.30;;;;;;;24.69;53.38;94637.84;5017225;28;96683;-61
2022/08/30 00:59:18;;;;;;;21.02;16.20;;;;;;;24.68;53.33;94646.53;5034068;28;96995;-61
2022/08/30 01:01:43;;;;;;;23.95;21.50;;;;;;;24.68;53.38;94635.50;5034253;28;99429;-61
2022/08/30 01:04:09;;;;;;;20.83;18.73;;;;;;;24.69;53.52;94634.28;5033100;28;99464;-61
2022/08/30 01:06:38;;;;;;;19.73;16.15;;;;;;;24.69;53.38;94637.06;5034298;28;96894;-61
2022/08/30 01:09:04;;;;;;;17.58;15.77;;;;;;;24.68;53.87;94632.75;5034903;27;96933;-62
2022/08/30 01:11:30;;;;;;;16.48;14.10;;;;;;;24.66;53.21;94611.09;5033201;28;99529;-62
2022/08/30 01:13:56;;;;;;;15.63;13.40;;;;;;;24.71;53.14;94612.56;5034401;28;99456;-62
2022/08/30 01:16:22;;;;;;;14.23;12.68;;;;;;;24.74;53.36;94616.47;5033501;28;96815;-62
2022/08/30 01:18:48;;;;;;;14.82;12.57;;;;;;;24.74;53.27;94614.50;5035019;28;96885;-62
2022/08/30 01:21:45;;;;;;;16.20;12.57;;;;;;;24.70;53.66;94605.47;5016470;28;99324;-62
2022/08/30 01:24:10;;;;;;;13.27;11.88;;;;;;;24.71;53.10;94612.56;5034354;27;99269;-61
2022/08/30 01:26:36;;;;;;;15.68;13.00;;;;;;;24.70;53.33;94616.53;5016645;28;96797;-61
2022/08/30 01:29:04;;;;;;;12.70;11.38;;;;;;;24.63;53.21;94602.88;5034471;27;96894;-61
2022/08/30 01:31:29;;;;;;;12.82;11.52;;;;;;;24.67;53.21;94606.34;5034352;28;100087;-60
2022/08/30 01:33:55;;;;;;;13.80;12.18;;;;;;;24.69;53.97;94612.22;5033793;28;99462;-61
2022/08/30 01:36:20;;;;;;;12.90;10.43;;;;;;;24.71;53.32;94612.56;5034122;28;96780;-62
2022/08/30 01:38:51;;;;;;;12.40;10.88;;;;;;;24.72;53.27;94614.13;5034580;27;96969;-61
2022/08/30 01:41:28;;;;;;;14.05;11.63;;;;;;;24.73;53.41;94623.22;5033564;27;97202;-62
2022/08/30 01:43:54;;;;;;;12.52;11.23;;;;;;;24.72;53.86;94630.72;5033386;28;99338;-62
2022/08/30 01:46:22;;;;;;;12.63;10.55;;;;;;;24.74;53.27;94617.25;5033737;28;97232;-62
2022/08/30 01:48:47;;;;;;;13.80;10.88;;;;;;;24.73;53.55;94610.16;5034029;27;96916;-62
2022/08/30 01:51:13;;;;;;;11.15;10.05;;;;;;;24.70;53.74;94606.28;5033801;28;99835;-62
2022/08/30 01:53:39;;;;;;;11.45;10.25;;;;;;;24.70;53.74;94605.47;5033500;28;99194;-61
2022/08/30 01:56:06;;;;;;;13.63;10.40;;;;;;;24.72;53.68;94619.66;5034158;28;96637;-61
2022/08/30 01:58:33;;;;;;;10.85;9.60;;;;;;;24.75;53.46;94618.81;5034101;27;96928;-61
2022/08/30 02:00:58;;;;;;;12.13;9.98;;;;;;;24.70;53.44;94609.03;5033721;28;98748;-60
2022/08/30 02:03:25;;;;;;;12.93;10.50;;;;;;;24.71;53.63;94596.78;5032619;28;103047;-61
2022/08/30 02:05:50;;;;;;;17.92;14.05;;;;;;;24.72;53.39;94603.09;5034344;27;96742;-60
2022/08/30 02:08:16;;;;;;;15.25;11.88;;;;;;;24.66;53.17;94593.72;5033764;28;96915;-60
2022/08/30 02:10:41;;;;;;;18.58;14.60;;;;;;;24.73;53.15;94604.66;5033495;28;99867;-60
2022/08/30 02:13:07;;;;;;;19.15;16.67;;;;;;;24.74;53.19;94606.22;5033349;27;99494;-60
2022/08/30 02:15:34;;;;;;;19.75;17.05;;;;;;;24.69;53.25;94592.88;5034275;27;96637;-61
2022/08/30 02:17:59;;;;;;;21.00;18.77;;;;;;;24.69;53.02;94603.91;5037557;27;96945;-61
2022/08/30 02:20:25;;;;;;;21.33;17.23;;;;;;;24.65;53.26;94590.19;5037025;28;99470;-61
2022/08/30 02:22:50;;;;;;;17.48;15.05;;;;;;;24.73;52.93;94588.09;5036773;28;99021;-61
2022/08/30 02:25:15;;;;;;;20.70;14.50;;;;;;;24.74;53.44;94592.41;5037445;28;96764;-60
2022/08/30 02:27:41;;;;;;;23.83;21.42;;;;;;;24.76;53.28;94589.19;5037049;28;96960;-60
2022/08/30 02:30:08;;;;;;;16.75;14.95;;;;;;;24.72;53.17;94586.53;5035808;28;102767;-61
2022/08/30 02:32:34;;;;;;;18.48;15.45;;;;;;;24.63;53.15;94578.81;5036562;27;99371;-61
2022/08/30 02:34:59;;;;;;;16.25;13.95;;;;;;;24.72;52.88;94597.56;5037043;28;96706;-61
2022/08/30 02:37:25;;;;;;;15.77;13.73;;;;;;;24.71;53.26;94595.97;5037072;28;97025;-61
2022/08/30 02:39:50;;;;;;;15.23;13.20;;;;;;;24.76;52.61;94595.50;5035834;28;106256;-62
2022/08/30 02:42:15;;;;;;;15.20;13.02;;;;;;;24.77;52.99;94599.81;5036350;28;99172;-62
2022/08/30 02:44:41;;;;;;;16.38;12.60;;;;;;;24.78;53.05;94584.81;5036918;28;97136;-61
2022/08/30 02:47:06;;;;;;;18.45;15.32;;;;;;;24.76;52.82;94581.69;5037046;28;96912;-61
2022/08/30 02:49:32;;;;;;;23.67;21.13;;;;;;;24.71;53.32;94576.66;5036446;28;101066;-61
2022/08/30 02:51:57;;;;;;;26.02;23.27;;;;;;;24.69;53.09;94582.63;5036580;28;99410;-61
2022/08/30 02:54:23;;;;;;;24.30;21.80;;;;;;;24.70;53.40;94575.09;5036917;28;97285;-60
2022/08/30 02:56:49;;;;;;;26.80;24.08;;;;;;;24.68;53.31;94581.06;5036653;27;96900;-61
2022/08/30 02:59:15;;;;;;;23.15;20.67;;;;;;;24.69;53.13;94584.59;5036217;28;98787;-61
2022/08/30 03:01:40;;;;;;;23.20;19.95;;;;;;;24.69;53.27;94588.16;5036235;28;99152;-61
2022/08/30 03:04:06;;;;;;;20.92;18.10;;;;;;;24.68;53.33;94596.84;5036702;28;97053;-60
2022/08/30 03:06:32;;;;;;;28.88;26.02;;;;;;;24.68;52.98;94591.31;5036676;28;96918;-60
2022/08/30 03:08:57;;;;;;;21.55;19.15;;;;;;;24.61;53.22;94586.75;5036212;28;97783;-60
2022/08/30 03:11:23;;;;;;;20.02;17.10;;;;;;;24.69;53.10;94598.41;5035916;28;101114;-61
2022/08/30 03:13:48;;;;;;;17.80;15.90;;;;;;;24.68;53.37;94596.84;5036425;27;96743;-62
2022/08/30 03:16:14;;;;;;;17.95;14.90;;;;;;;24.68;53.47;94596.84;5036696;28;96934;-61
2022/08/30 03:18:41;;;;;;;15.85;14.15;;;;;;;24.68;53.51;94597.63;5036064;27;99738;-62
2022/08/30 03:21:11;;;;;;;15.80;14.02;;;;;;;24.67;53.36;94592.53;5036184;27;99051;-61
2022/08/30 03:23:36;;;;;;;15.38;13.77;;;;;;;24.69;52.98;94603.91;5034651;28;96727;-61
2022/08/30 03:26:02;;;;;;;18.05;15.43;;;;;;;24.71;52.89;94602.31;5035797;28;97047;-61
2022/08/30 03:28:28;;;;;;;15.68;13.98;;;;;;;24.71;52.92;94604.28;5035315;27;99554;-61
2022/08/30 03:30:54;;;;;;;14.40;12.90;;;;;;;24.72;53.02;94603.09;5036004;27;100593;-61
2022/08/30 03:33:20;;;;;;;13.60;12.20;;;;;;;24.70;52.68;94602.72;5035894;27;96699;-60
2022/08/30 03:35:45;;;;;;;13.40;12.00;;;;;;;24.72;53.41;94597.56;5036422;28;96963;-61
2022/08/30 03:38:11;;;;;;;15.10;12.30;;;;;;;24.76;53.01;94603.00;5035032;28;99359;-62
2022/08/30 03:40:36;;;;;;;13.20;11.80;;;;;;;24.75;52.83;94602.25;5035497;28;99817;-61
2022/08/30 03:43:02;;;;;;;15.70;12.60;;;;;;;24.76;52.91;94603.78;5036647;28;96847;-60
2022/08/30 03:45:27;;;;;;;15.43;12.45;;;;;;;24.78;52.77;94603.34;5035707;28;97293;-61
2022/08/30 03:47:53;;;;;;;15.20;13.32;;;;;;;24.77;52.83;94599.81;5034664;28;99326;-60
2022/08/30 03:50:18;;;;;;;15.55;13.32;;;;;;;24.70;52.51;94595.22;5034768;28;99340;-61
2022/08/30 03:52:44;;;;;;;18.10;16.08;;;;;;;24.77;52.53;94604.56;5033964;28;97053;-61
2022/08/30 03:55:10;;;;;;;18.38;16.38;;;;;;;24.72;52.53;94589.28;5035620;27;96972;-61
2022/08/30 03:57:36;;;;;;;18.75;16.73;;;;;;;24.77;52.82;94596.28;5034735;28;99262;-61
2022/08/30 04:00:02;;;;;;;26.13;23.40;;;;;;;24.77;52.37;94599.81;5035153;28;99312;-61
2022/08/30 04:02:28;;;;;;;25.50;22.75;;;;;;;24.74;52.50;94595.16;5035938;28;97227;-61
2022/08/30 04:04:54;;;;;;;22.83;20.42;;;;;;;24.71;53.10;94602.31;5035525;28;96918;-61
2022/08/30 04:07:19;;;;;;;22.88;18.02;;;;;;;24.74;53.04;94600.69;5034915;28;99455;-61
2022/08/30 04:09:46;;;;;;;18.13;15.55;;;;;;;24.73;53.18;94603.88;5034738;28;99350;-61
2022/08/30 04:12:11;;;;;;;20.80;18.60;;;;;;;24.76;52.78;94609.31;5035108;27;96804;-61
2022/08/30 04:14:37;;;;;;;22.27;19.92;;;;;;;24.73;52.68;94612.16;5035556;28;96983;-61
2022/08/30 04:17:02;;;;;;;25.77;23.08;;;;;;;24.73;52.57;94610.16;5035274;28;99389;-61
2022/08/30 04:19:27;;;;;;;35.67;32.10;;;;;;;24.58;52.90;94590.34;5034980;28;99282;-62
2022/08/30 04:21:53;;;;;;;24.83;22.15;;;;;;;24.74;52.78;94617.25;5035815;28;97100;-61
2022/08/30 04:24:18;;;;;;;22.02;19.65;;;;;;;24.71;53.14;94612.56;5035626;28;96903;-61
2022/08/30 04:26:56;;;;;;;24.48;22.05;;;;;;;24.70;53.23;94608.25;5035512;27;99455;-61
2022/08/30 04:29:22;;;;;;;21.38;19.08;;;;;;;24.67;53.20;94618.16;5033562;28;98982;-62
2022/08/30 04:31:47;;;;;;;21.85;18.13;;;;;;;24.69;53.32;94620.50;5035668;28;96828;-62
2022/08/30 04:34:13;;;;;;;18.80;15.50;;;;;;;24.68;52.87;94628.00;5035294;28;96907;-62
2022/08/30 04:36:38;;;;;;;18.33;14.95;;;;;;;24.67;53.21;94612.66;5034691;28;99416;-62
2022/08/30 04:39:04;;;;;;;16.15;14.25;;;;;;;24.69;53.36;94620.50;5034300;27;99234;-61
2022/08/30 04:41:29;;;;;;;17.95;14.65;;;;;;;24.69;52.83;94626.00;5035453;28;97239;-61
2022/08/30 04:43:55;;;;;;;20.95;16.95;;;;;;;24.71;53.02;94626.38;5034742;28;96947;-61
2022/08/30 04:46:20;;;;;;;18.70;16.33;;;;;;;24.68;53.26;94625.25;5034694;28;99507;-61
2022/08/30 04:48:46;;;;;;;20.30;17.73;;;;;;;24.74;52.85;94639.34;5034860;28;99036;-62
2022/08/30 04:51:13;;;;;;;18.42;16.40;;;;;;;24.75;52.73;94638.16;5035150;28;97729;-63
2022/08/30 04:53:39;;;;;;;18.58;16.67;;;;;;;24.76;53.03;94642.47;5035133;27;97342;-61
2022/08/30 04:56:15;;;;;;;23.83;19.63;;;;;;;24.75;52.90;94646.44;5034556;28;99649;-61
2022/08/30 04:58:41;;;;;;;21.60;19.17;;;;;;;24.79;52.63;94647.13;5034282;28;99358;-62
2022/08/30 05:01:13;;;;;;;23.05;19.15;;;;;;;24.79;52.83;94652.66;5035160;27;96642;-61
2022/08/30 05:03:39;;;;;;;24.42;21.20;;;;;;;24.72;52.56;94647.28;5035234;27;96759;-62
2022/08/30 05:06:04;;;;;;;25.42;22.77;;;;;;;24.75;52.99;94651.94;5034130;28;99228;-62
2022/08/30 05:08:30;;;;;;;24.17;20.85;;;;;;;24.77;53.52;94660.59;5034374;27;99505;-63
2022/08/30 05:10:55;;;;;;;23.02;19.83;;;;;;;24.73;53.24;94654.38;5034551;28;96976;-61
2022/08/30 05:13:21;;;;;;;21.92;19.55;;;;;;;24.77;53.22;94657.81;5035061;28;96928;-63
2022/08/30 05:15:46;;;;;;;20.88;18.67;;;;;;;24.70;53.33;94649.66;5034506;28;99440;-61
2022/08/30 05:18:12;;;;;;;21.05;17.25;;;;;;;24.72;53.36;94661.09;5034603;28;99213;-60
2022/08/30 05:20:37;;;;;;;20.73;17.05;;;;;;;24.69;53.96;94659.94;5034657;27;96814;-61
2022/08/30 05:23:03;;;;;;;20.75;16.67;;;;;;;24.68;53.77;94663.13;5034358;27;96971;-62
2022/08/30 05:25:30;;;;;;;20.45;16.42;;;;;;;24.67;54.09;94664.31;5034502;28;99535;-59
2022/08/30 05:27:56;;;;;;;20.00;15.90;;;;;;;24.67;54.21;94669.84;5033875;28;99327;-60
2022/08/30 05:30:22;;;;;;;17.73;14.23;;;;;;;24.65;54.18;94663.97;5034355;27;96937;-62
2022/08/30 05:32:47;;;;;;;16.15;14.20;;;;;;;24.66;54.14;94660.00;5034520;28;96933;-62
2022/08/30 05:35:13;;;;;;;17.85;14.90;;;;;;;24.67;54.04;94667.09;5033285;28;99794;-62
2022/08/30 05:37:39;;;;;;;29.17;26.17;;;;;;;24.64;54.55;94665.16;5033937;28;99142;-62
2022/08/30 05:40:05;;;;;;;27.73;23.92;;;;;;;24.66;53.99;94660.00;5034003;28;97676;-62
2022/08/30 05:42:31;;;;;;;22.98;19.25;;;;;;;24.65;54.17;94659.22;5034070;28;96974;-63
2022/08/30 05:44:56;;;;;;;24.25;19.75;;;;;;;24.65;54.01;94658.44;5034213;27;99388;-61
2022/08/30 05:47:22;;;;;;;21.65;18.83;;;;;;;24.65;54.12;94663.97;5033523;28;99354;-61
2022/08/30 05:49:47;;;;;;;19.23;16.67;;;;;;;24.64;54.20;94667.94;5033714;27;96813;-61
2022/08/30 05:52:14;;;;;;;20.85;16.38;;;;;;;24.63;54.52;94661.66;5037216;28;97053;-62
2022/08/30 05:54:40;;;;;;;25.58;19.60;;;;;;;24.61;54.38;94657.72;5037548;27;99684;-60
2022/08/30 05:57:06;;;;;;;22.70;20.17;;;;;;;24.62;54.07;94653.78;5037448;28;99458;-61
2022/08/30 05:59:32;;;;;;;24.30;21.17;;;;;;;24.58;54.16;94654.63;5037951;28;96931;-61
2022/08/30 06:01:57;;;;;;;25.83;22.33;;;;;;;24.66;54.22;94654.47;5037842;27;96663;-62
2022/08/30 06:04:23;;;;;;;29.83;26.77;;;;;;;24.67;54.56;94661.56;5037265;28;99840;-61
2022/08/30 06:06:48;;;;;;;28.30;24.88;;;;;;;24.68;53.91;94658.38;5036295;28;100022;-62
2022/08/30 06:09:14;;;;;;;26.40;23.70;;;;;;;24.70;54.42;94660.72;5037607;28;97126;-61
2022/08/30 06:11:40;;;;;;;27.73;22.52;;;;;;;24.71;54.27;94656.75;5036553;28;96979;-61
2022/08/30 06:14:05;;;;;;;31.75;27.60;;;;;;;24.68;54.30;94663.91;5036589;28;99940;-62
2022/08/30 06:16:31;;;;;;;35.42;30.10;;;;;;;24.69;54.25;94662.69;5037071;28;99413;-61
2022/08/30 06:18:57;;;;;;;31.15;27.92;;;;;;;24.61;54.24;94657.72;5037625;28;96740;-61
2022/08/30 06:21:27;;;;;;;29.85;26.55;;;;;;;24.67;54.38;94672.59;5037197;28;96968;-62
2022/08/30 06:23:53;;;;;;;34.65;30.05;;;;;;;24.59;54.29;94671.97;5036382;27;99623;-61
2022/08/30 06:26:18;;;;;;;29.55;24.75;;;;;;;24.65;54.60;94680.53;5036732;27;98627;-61
2022/08/30 06:28:44;;;;;;;28.25;25.25;;;;;;;24.64;54.79;94684.50;5036704;27;97940;-61
2022/08/30 06:31:10;;;;;;;36.10;32.20;;;;;;;24.63;54.76;94689.25;5037112;27;96843;-61
2022/08/30 06:33:35;;;;;;;34.65;30.08;;;;;;;24.62;54.84;94689.66;5036808;28;99617;-61
2022/08/30 06:36:05;;;;;;;28.05;23.65;;;;;;;24.64;54.41;94687.25;5036248;28;99506;-61
2022/08/30 06:38:30;;;;;;;27.48;24.17;;;;;;;24.63;54.56;94683.72;5037209;27;96779;-61
2022/08/30 06:40:56;;;;;;;27.85;24.88;;;;;;;24.62;54.87;94686.91;5037210;27;96991;-62
2022/08/30 06:43:21;;;;;;;32.38;29.02;;;;;;;24.60;54.94;94694.84;5036547;27;98619;-61
2022/08/30 06:45:47;;;;;;;32.20;28.88;;;;;;;24.64;54.54;94685.28;5036518;27;101638;-61
2022/08/30 06:48:12;;;;;;;26.00;23.20;;;;;;;24.60;55.04;94683.78;5037046;28;96690;-62
2022/08/30 06:50:40;;;;;;;23.67;19.08;;;;;;;24.67;55.09;94687.19;5036649;27;98571;-61
2022/08/30 06:53:06;;;;;;;22.30;18.55;;;;;;;24.66;54.88;94698.66;5035939;27;99505;-61
2022/08/30 06:55:34;;;;;;;25.10;18.73;;;;;;;24.73;54.93;94697.78;5036535;28;99617;-61
2022/08/30 06:58:00;;;;;;;35.67;29.27;;;;;;;24.71;55.00;94687.91;5036423;27;96857;-61
2022/08/30 07:00:26;;;;;;;35.90;31.88;;;;;;;24.62;55.08;94693.22;5036681;27;96927;-61
2022/08/30 07:02:52;;;;;;;43.03;37.50;;;;;;;24.67;54.64;94694.69;5035377;27;99533;-61
2022/08/30 07:05:20;;;;;;;50.53;45.13;;;;;;;24.64;54.92;94695.53;5034892;28;96896;-61
2022/08/30 07:07:46;;;;;;;36.30;32.35;;;;;;;24.65;55.26;94697.91;5036784;28;96640;-61
2022/08/30 07:10:13;;;;;;;32.92;27.88;;;;;;;24.65;55.22;94691.56;5035477;28;96989;-61
2022/08/30 07:12:39;;;;;;;27.92;24.13;;;;;;;24.64;55.20;94695.53;5036134;27;99317;-62
2022/08/30 07:15:04;;;;;;;35.88;30.50;;;;;;;24.62;55.31;94698.75;5035381;27;103596;-61
2022/08/30 07:20:27;;;;;;;56.65;45.35;;;;;;;24.62;54.99;94703.47;5033041;28;96915;-60
2022/08/30 07:22:52;;;;;;;57.15;50.83;;;;;;;24.63;55.23;94696.75;5035458;27;99547;-60
2022/08/30 07:25:18;;;;;;;41.25;33.90;;;;;;;24.53;55.07;94685.47;5035563;27;101327;-61
2022/08/30 07:27:44;;;;;;;36.92;32.60;;;;;;;24.63;55.33;94699.50;5036108;27;96634;-61
2022/08/30 07:30:10;;;;;;;35.05;30.08;;;;;;;24.64;55.22;94706.59;5035420;28;96902;-63
2022/08/30 07:32:37;;;;;;;33.60;26.85;;;;;;;24.65;55.06;94710.91;5035821;28;100207;-62
2022/08/30 07:35:03;;;;;;;28.90;24.50;;;;;;;24.64;55.19;94707.38;5035485;27;99339;-63
2022/08/30 07:37:29;;;;;;;29.15;23.88;;;;;;;24.64;54.93;94709.34;5036290;27;96716;-62
2022/08/30 07:39:54;;;;;;;28.10;24.38;;;;;;;24.62;54.96;94703.47;5035921;27;96977;-59
2022/08/30 07:42:20;;;;;;;31.50;26.70;;;;;;;24.67;54.77;94712.06;5035497;27;99502;-60
2022/08/30 07:44:45;;;;;;;35.03;31.23;;;;;;;24.57;54.71;94697.25;5035881;27;98956;-60
2022/08/30 07:47:10;;;;;;;31.65;27.25;;;;;;;24.70;54.72;94710.41;5028406;27;97278;-60
2022/08/30 07:49:36;;;;;;;28.13;25.23;;;;;;;24.70;54.68;94710.41;5024501;28;96924;-60
2022/08/30 07:52:02;;;;;;;29.48;26.33;;;;;;;24.70;54.85;94708.44;5015296;28;99573;-60
2022/08/30 07:54:27;;;;;;;35.40;31.58;;;;;;;24.69;54.88;94711.63;5015690;28;99726;-61
2022/08/30 07:56:54;;;;;;;40.97;36.53;;;;;;;24.67;54.95;94716.78;5015568;28;96686;-61
2022/08/30 07:59:21;;;;;;;39.92;35.85;;;;;;;24.62;55.02;94714.53;5015098;28;96947;-62
2022/08/30 08:01:46;;;;;;;35.50;31.73;;;;;;;24.69;54.89;94714.38;5014807;28;99515;-62
2022/08/30 08:04:11;;;;;;;35.85;32.05;;;;;;;24.71;54.90;94718.28;5014669;28;99008;-62
2022/08/30 08:06:38;;;;;;;37.70;31.83;;;;;;;24.69;54.92;94712.41;5015649;28;96741;-61
2022/08/30 08:09:03;;;;;;;31.80;28.00;;;;;;;24.62;55.02;94715.31;5016228;28;97475;-61
2022/08/30 08:11:30;;;;;;;32.38;28.17;;;;;;;24.70;55.01;94735.28;5014969;28;99334;-61
2022/08/30 08:13:55;;;;;;;30.83;26.77;;;;;;;24.68;54.83;94724.66;5013895;28;99391;-61
2022/08/30 08:16:23;;;;;;;32.35;28.95;;;;;;;24.71;54.72;94729.34;5014959;28;97585;-61
2022/08/30 08:18:48;;;;;;;35.05;31.42;;;;;;;24.71;54.87;94718.28;5015412;28;96955;-61
2022/08/30 08:21:14;;;;;;;40.65;36.50;;;;;;;24.71;55.01;94723.03;5014293;28;99644;-62
2022/08/30 08:23:39;;;;;;;32.67;28.55;;;;;;;24.73;54.73;94726.16;5014977;28;102344;-61
2022/08/30 08:26:05;;;;;;;33.55;29.15;;;;;;;24.74;54.93;94722.19;5014768;28;96712;-62
2022/08/30 08:28:30;;;;;;;28.73;25.40;;;;;;;24.76;54.94;94730.84;5014025;28;96985;-61
2022/08/30 08:30:55;;;;;;;26.80;23.88;;;;;;;24.77;54.58;94726.88;5014647;28;99042;-61
2022/08/30 08:33:21;;;;;;;29.67;26.30;;;;;;;24.79;54.49;94723.69;5014679;28;99360;-60
2022/08/30 08:35:47;;;;;;;36.15;32.22;;;;;;;24.78;54.47;94722.91;5015454;28;96623;-61
2022/08/30 08:38:12;;;;;;;46.65;41.70;;;;;;;24.79;54.46;94713.41;5015307;28;97042;-61
2022/08/30 08:40:42;;;;;;;37.22;33.35;;;;;;;24.77;54.41;94721.34;5014479;28;99658;-62
2022/08/30 08:43:13;;;;;;;50.50;45.33;;;;;;;24.79;54.33;94713.41;5012907;28;99741;-62
2022/08/30 08:46:03;;;;;;;38.28;33.05;;;;;;;24.83;54.44;94714.13;4996820;28;96860;-62
2022/08/30 08:48:37;;;;;;;31.95;27.95;;;;;;;24.84;53.98;94718.44;5052289;27;96881;-63
2022/08/30 08:53:52;;;;;;;27.33;24.42;;;;;;;24.86;54.45;94713.28;5053552;27;97178;-63
2022/08/30 08:56:17;;;;;;;27.87;22.30;;;;;;;24.87;54.94;94719.56;5054375;27;96811;-66
2022/08/30 08:58:44;;;;;;;24.75;22.05;;;;;;;24.81;54.70;94716.53;5054251;27;97082;-65
2022/08/30 09:01:11;;;;;;;25.20;21.13;;;;;;;24.76;54.23;94697.69;5054964;27;99539;-60
2022/08/30 09:03:36;;;;;;;26.92;24.00;;;;;;;24.78;54.86;94711.88;5054387;27;99679;-62
2022/08/30 09:06:05;;;;;;;37.17;33.35;;;;;;;24.79;54.63;94701.56;5054459;27;96850;-61
2022/08/30 09:08:32;;;;;;;40.05;36.10;;;;;;;24.73;54.69;94698.56;5037350;27;96880;-61
2022/08/30 09:11:05;;;;;;;40.67;36.50;;;;;;;24.78;54.86;94706.34;5053812;27;99840;-60
2022/08/30 09:13:31;;;;;;;35.80;32.03;;;;;;;24.79;54.89;94699.59;5053138;27;99517;-61
2022/08/30 09:15:57;;;;;;;36.88;33.10;;;;;;;24.79;54.54;94699.59;5054469;27;96653;-61
2022/08/30 09:18:43;;;;;;;37.25;33.38;;;;;;;24.79;54.87;94705.13;5053963;27;97069;-62
2022/08/30 09:21:08;;;;;;;29.17;26.10;;;;;;;24.79;55.14;94707.09;5054310;27;99437;-63
2022/08/30 09:23:34;;;;;;;28.60;25.30;;;;;;;24.80;55.63;94709.44;5054590;27;99594;-63
2022/08/30 09:26:08;;;;;;;26.23;23.15;;;;;;;24.77;55.34;94707.53;5035765;27;96851;-63
2022/08/30 09:28:42;;;;;;;24.08;21.50;;;;;;;24.71;55.37;94695.41;5054018;27;96878;-62
2022/08/30 09:31:18;;;;;;;21.83;18.75;;;;;;;24.73;55.30;94692.25;5042991;27;98658;-62
2022/08/30 09:33:54;;;;;;;22.08;18.10;;;;;;;24.78;55.53;94709.09;5033574;27;99460;-62
2022/08/30 09:36:25;;;;;;;20.05;17.92;;;;;;;24.79;55.18;94707.91;5034538;28;96725;-62
2022/08/30 09:39:02;;;;;;;23.80;20.00;;;;;;;24.81;55.35;94716.53;5033506;28;96890;-62
2022/08/30 09:41:38;;;;;;;24.15;20.88;;;;;;;24.81;55.45;94712.97;5032997;28;99750;-61
2022/08/30 09:44:17;;;;;;;27.58;22.83;;;;;;;24.82;55.93;94706.25;5033310;27;99513;-62
2022/08/30 09:46:48;;;;;;;26.90;23.75;;;;;;;24.81;55.71;94711.00;5034472;27;96636;-61
2022/08/30 09:49:34;;;;;;;26.25;23.42;;;;;;;24.82;55.66;94712.56;5034811;27;96784;-63
2022/08/30 09:52:18;;;;;;;24.15;21.52;;;;;;;24.79;55.46;94696.84;5033303;27;99712;-63
2022/08/30 09:54:55;;;;;;;22.50;19.67;;;;;;;24.89;55.67;94706.09;5032462;28;99392;-63
2022/08/30 09:57:54;;;;;;;22.02;19.42;;;;;;;24.88;55.65;94701.03;5032904;28;96822;-63
2022/08/30 10:00:27;;;;;;;22.38;18.60;;;;;;;24.84;55.03;94699.13;5002891;27;96894;-62
2022/08/30 10:03:04;;;;;;;32.58;29.08;;;;;;;24.89;54.68;94694.28;5032471;28;99412;-62
2022/08/30 10:06:09;;;;;;;38.08;34.17;;;;;;;24.91;54.87;94692.66;5033736;28;99226;-62
2022/08/30 10:08:41;;;;;;;34.33;30.73;;;;;;;24.89;54.67;94683.25;5025005;28;96709;-63
2022/08/30 10:11:19;;;;;;;41.65;37.25;;;;;;;24.89;54.80;94680.47;5032717;28;97499;-62
2022/08/30 10:13:56;;;;;;;32.97;29.42;;;;;;;24.91;54.74;94675.31;5014450;28;99874;-63
2022/08/30 10:16:38;;;;;;;28.85;25.13;;;;;;;24.91;54.79;94667.03;5032480;28;99807;-63
2022/08/30 10:19:22;;;;;;;25.02;21.08;;;;;;;24.94;54.86;94675.22;5033030;28;97150;-62
2022/08/30 10:22:36;;;;;;;22.40;20.05;;;;;;;24.97;54.71;94670.84;5033792;27;96961;-61
2022/08/30 10:25:09;;;;;;;22.70;19.02;;;;;;;24.98;54.55;94661.34;5023231;27;100307;-61
2022/08/30 10:27:42;;;;;;;43.83;39.40;;;;;;;24.98;54.52;94658.59;5032035;28;98877;-61
2022/08/30 10:30:10;;;;;;;47.65;42.58;;;;;;;25.00;54.33;94651.41;5032002;28;96873;-61
2022/08/30 10:32:50;;;;;;;54.80;48.97;;;;;;;25.04;54.50;94656.84;5032405;28;96948;-61
2022/08/30 10:35:23;;;;;;;30.65;27.45;;;;;;;25.09;55.51;94645.28;5031993;28;99529;-55
2022/08/30 10:37:54;;;;;;;31.02;26.08;;;;;;;24.99;57.88;94649.09;5033760;27;99205;-60
2022/08/30 10:43:30;;;;;;;24.52;21.92;;;;;;;24.93;58.32;94640.50;5033411;28;96739;-61
2022/08/30 10:45:58;;;;;;;25.13;21.13;;;;;;;25.00;57.84;94645.13;5035676;28;99568;-61
2022/08/30 10:48:27;;;;;;;22.92;20.45;;;;;;;24.99;57.59;94640.81;5034995;28;99304;-60
2022/08/30 10:50:54;;;;;;;22.70;19.25;;;;;;;25.03;57.74;94649.75;5019230;28;97231;-62
2022/08/30 10:53:31;;;;;;;21.52;18.73;;;;;;;25.06;58.22;94643.38;5035713;28;96980;-59
2022/08/30 10:56:02;;;;;;;20.63;18.13;;;;;;;25.07;57.56;94644.94;5017857;28;99570;-58
2022/08/30 10:58:30;;;;;;;22.63;18.45;;;;;;;25.07;56.90;94638.66;5036295;28;98885;-57
2022/08/30 11:01:14;;;;;;;20.83;18.63;;;;;;;25.15;57.68;94635.28;5035367;28;96777;-58
2022/08/30 11:03:42;;;;;;;21.42;18.95;;;;;;;25.23;56.96;94635.13;5036682;28;97403;-61
2022/08/30 11:06:15;;;;;;;21.25;18.70;;;;;;;25.25;56.87;94635.47;5035882;28;99614;-63
2022/08/30 11:08:44;;;;;;;20.83;18.73;;;;;;;25.26;57.36;94637.03;5035291;28;99313;-62
2022/08/30 11:11:35;;;;;;;21.38;18.52;;;;;;;25.27;56.63;94635.81;5036451;27;96739;-65
2022/08/30 11:14:01;;;;;;;198.82;176.68;;;;;;;25.27;57.40;94630.28;5036705;27;96780;-63
2022/08/30 11:16:35;;;;;;;113.70;102.47;;;;;;;25.23;57.78;94621.31;5017336;28;99682;-61
2022/08/30 11:19:00;;;;;;;63.78;57.65;;;;;;;25.24;58.13;94625.63;5017702;28;99164;-61
2022/08/30 11:21:35;;;;;;;72.43;65.72;;;;;;;25.23;57.21;94619.31;5036526;28;96638;-63
2022/08/30 11:24:01;;;;;;;47.35;42.65;;;;;;;25.22;57.26;94616.97;5036386;28;97048;-61
2022/08/30 11:26:45;;;;;;;39.47;35.40;;;;;;;25.21;56.85;94615.41;5034668;28;100010;-61
2022/08/30 11:29:39;;;;;;;62.25;56.03;;;;;;;25.20;56.04;94613.88;5035415;27;99091;-62
2022/08/30 11:32:17;;;;;;;45.60;40.75;;;;;;;25.20;56.00;94613.88;5036334;27;96632;-61